Terminal Aerodrome Forecast
Issued by NWS Sterling, VA

Home | Current Version | Previous Version | Text Only | Print | Product List | Glossary On
Versions: 1 2 3 4 5 6 7 8 9 10 11 12 13 14
000
FTUS41 KLWX 221300 AAA
TAFCHO
TAF AMD
KCHO 221300Z 2213/2312 34012G20KT P6SM SCT025 BKN040
     FM221500 34017G25KT P6SM BKN040
     FM230000 32014KT P6SM SCT250=

USA.gov is the U.S. government's official web portal to all federal, state and local government web resources and services.